Tropical Cyclones
[Index]
Main Index Home Page Stock Weather Photos Extreme Storms Discussion Storm News and Storm Chasing Reports Tropical Cyclones / Hurricanes / Typhoons Weather Data and Links Wild Fires / Bushfires Weather Observation Techniques Weather Picture Catalogue Tornado Pictures and Reports Stock Video Footage and DVDs for sale
Season 1986-1987 Tropical Cyclone RAJA Track Map
Season 1986-1987 Summaries: [BoM-AU] [JTWC-AU] [JTWC-SIO] [JTWC-SPAC] [JTWC-SH]
<<- Previous TC | JTWC 1986-1987 Season | Next TC ->>

click for intensity scale information  Lat/long Grid: Show Hide

 Date Labels: Show Hide

Joint Typhoon Warning Centre Cyclone Data

Name: RAJA

22 Dec 1986 00:00 UTC to 01 Jan 1987 06:00 UTC

    date/time    lat    long     hPa   cat  kts
1986-12-22 00    8.5   179.0W                 25          
1986-12-22 06    9.3   179.5W                 25          
1986-12-22 12   10.1   179.9W                 30          
1986-12-22 18   11.0   179.4                  30          
1986-12-23 00   11.6   178.7                  30          
1986-12-23 06   12.0   177.9                  30          
1986-12-23 12   12.1   177.1                  30          
1986-12-23 18   12.1   176.3                  35          
1986-12-24 00   12.3   176.0                  35          
1986-12-24 06   12.7   176.1                  35          
1986-12-24 12   13.2   176.7            1     40          
1986-12-24 18   13.6   177.6            1     45          
1986-12-25 00   14.0   178.4            2     55          
1986-12-25 06   14.4   179.0            2     55          
1986-12-25 12   14.7   179.7            2     55          
1986-12-25 18   14.9   179.4W           2     55          
1986-12-26 00   14.9   178.4W           2     55          
1986-12-26 06   14.9   177.8W           2     55          
1986-12-26 12   14.9   177.4W           2     55          
1986-12-26 18   14.9   177.4W           2     55          
1986-12-27 00   14.9   177.6W           2     60          
1986-12-27 06   14.9   177.7W           2     65          
1986-12-27 12   15.0   178.0W           2     65          
1986-12-27 18   15.0   178.4W           2     65          
1986-12-28 00   15.0   178.8W           2     70          
1986-12-28 06   15.0   179.2W           3     75          
1986-12-28 12   15.0   179.5W           3     75          
1986-12-28 18   15.2   179.8W           3     80          
1986-12-29 00   15.6   179.9W           3     80          
1986-12-29 06   16.1   179.9W           3     80          
1986-12-29 12   16.7   179.8W           3     85          
1986-12-29 18   17.4   179.6W           3     90          
1986-12-30 00   18.2   179.2W           3     90          
1986-12-30 06   19.0   178.8W           3     90          
1986-12-30 12   20.0   178.4W           3     90          
1986-12-30 18   21.2   178.0W           3     90          
1986-12-31 00   22.4   177.5W           3     80          
1986-12-31 06   23.6   176.9W           2     65          
1986-12-31 12   24.6   176.4W           2     55          
1986-12-31 18   25.0   176.6W           1     45          
1987-01-01 00   25.0   177.3W                 35          
1987-01-01 06   25.0   178.0W                 30          
Winds are 1-min average.

Tropical cyclone tracks developed by Michael Bath using data from the Joint Typhoon Warning Centre Best Tracks and Google Maps.


[Australian Severe Weather index] [Copyright Notice] [Email Contacts] [Search This Site] [Privacy Policy]
Document: tropical_cyclone_raja.htm Updated: 18 September 2016